• Join FlightAware (Why Join?)
  • Login
  • US Flag 
11:35PM EST


 

Airport Tracker/Info


-or-


 

Live Flight TrackerFlight Track Log ✈ N8414Z ✈ 20-Jun-2014 ✈ 7G0 - KPSF

Flight Track Log - Related Links

Times and Time Zones

All times are in EDT time to prevent confusion due to time zone crossing. See the N8414Z flight status page for this flight to view local times or setup timezone preferences in your user account.

Time Position Orientation Groundspeed Altitude Reporting Facility
EDT Latitude Longitude Course Direction KTS MPH feet Rate Location/Type
08:45AM 43.1439 -77.9611 106° East 102 117 4,400  Level Cleveland Center
08:46AM 43.1364 -77.9244 106° East 107 123 5,200 595 Climbing Cleveland Center
08:47AM 43.1347 -77.8775 93° East 120 138 5,600 198 Climbing Cleveland Center
08:48AM 43.1314 -77.8272 95° East 145 167 5,600  Level Cleveland Center
08:49AM 43.1261 -77.7739 98° East 144 166 5,600  Level Cleveland Center
08:49AM 43.1261 -77.7667 90° East 136 157 5,600  Level Cleveland Center
08:50AM 43.1211 -77.7203 98° East 145 167 5,600  Level Cleveland Center
08:50AM 43.1214 -77.7117 87° East 141 162 5,600  Level Cleveland Center
08:51AM 43.1181 -77.6672 96° East 146 168 5,600  Level Cleveland Center
08:51AM 43.1169 -77.6561 98° East 142 163 5,600  Level Cleveland Center
08:52AM 43.1139 -77.6081 95° East 147 169 5,600  Level Cleveland Center
08:52AM 43.1131 -77.6006 99° East 143 165 5,600  Level Cleveland Center
08:53AM 43.1111 -77.5525 93° East 144 166 5,600  Level Cleveland Center
08:53AM 43.1103 -77.5453 99° East 143 165 5,600  Level Cleveland Center
08:54AM 43.1058 -77.4989 97° East 145 167 5,600  Level Cleveland Center
08:54AM 43.1042 -77.4800 97° East 144 166 5,600  Level Cleveland Center
08:55AM 43.1011 -77.4425 96° East 147 169 5,600  Level Cleveland Center
08:55AM 43.0992 -77.4239 98° East 145 167 5,600  Level Cleveland Center
08:56AM 43.0953 -77.3775 97° East 150 173 5,600  Level Cleveland Center
08:56AM 43.0956 -77.3669 88° East 147 169 5,600  Level Cleveland Center
08:57AM 43.0906 -77.3108 97° East 147 169 5,600  Level Cleveland Center
08:58AM 43.0856 -77.2650 98° East 150 173 5,600  Level Cleveland Center
08:58AM 43.0850 -77.2533 94° East 148 170 5,600  Level Cleveland Center
08:59AM 43.0806 -77.2086 98° East 151 174 5,600  Level Cleveland Center
08:59AM 43.0808 -77.1967 88° East 148 170 5,600  Level Cleveland Center
09:00AM 43.0753 -77.1408 98° East 152 175 5,600  Level Cleveland Center
09:00AM 43.0747 -77.1281 93° East 149 171 5,600  Level Cleveland Center
09:01AM 43.0711 -77.0933 98° East 151 174 5,600  Level Cleveland Center
09:01AM 43.0700 -77.0711 94° East 149 171 5,600  Level Cleveland Center
09:02AM 43.0650 -77.0144 97° East 150 173 5,600  Level Cleveland Center
09:03AM 43.0603 -76.9564 96° East 150 173 5,600  Level Cleveland Center
09:04AM 43.0550 -76.8989 97° East 151 174 5,600 -53 Level Cleveland Center
09:05AM 43.0514 -76.8553 96° East 150 173 5,500  Descending Boston Center
09:06AM 43.0478 -76.8150 97° East 154 177 5,600  Climbing Boston Center
09:06AM 43.0447 -76.7839 98° East 154 177 5,500  Descending Boston Center
09:07AM 43.0428 -76.7578 96° East 154 177 5,600  Climbing Boston Center
09:07AM 43.0406 -76.7269 96° East 154 177 5,500  Descending Boston Center
09:08AM 43.0386 -76.6953 95° East 155 178 5,600  Climbing Boston Center
09:08AM 43.0356 -76.6683 99° East 154 177 5,500  Descending Boston Center
09:09AM 43.0336 -76.6381 95° East 155 178 5,600  Climbing Boston Center
09:09AM 43.0297 -76.6097 101° East 154 177 5,500  Descending Boston Center
09:10AM 43.0275 -76.5747 95° East 154 177 5,600  Climbing Boston Center
09:10AM 43.0244 -76.5525 101° East 154 177 5,500  Descending Boston Center
09:11AM 43.0225 -76.5178 94° East 154 177 5,600  Climbing Boston Center
09:11AM 43.0203 -76.4947 98° East 154 177 5,500  Descending Boston Center
09:12AM 43.0172 -76.4606 97° East 153 176 5,600  Climbing Boston Center
09:12AM 43.0147 -76.4356 98° East 154 177 5,500  Descending Boston Center
09:13AM 43.0106 -76.4000 99° East 157 181 5,600  Climbing Boston Center
09:13AM 43.0092 -76.3767 95° East 154 177 5,500  Descending Boston Center
09:14AM 43.0058 -76.3403 97° East 157 181 5,600  Climbing Boston Center
09:14AM 43.0036 -76.3175 98° East 154 177 5,500  Descending Boston Center
09:15AM 43.0008 -76.2833 96° East 156 180 5,600  Climbing Boston Center
09:15AM 42.9983 -76.2578 98° East 155 178 5,500  Descending Boston Center
09:16AM 42.9958 -76.2233 96° East 158 182 5,600  Climbing Boston Center
09:16AM 42.9933 -76.1986 98° East 156 180 5,500  Descending Boston Center
09:17AM 42.9897 -76.1603 97° East 156 180 5,600  Climbing Boston Center
09:17AM 42.9883 -76.1400 95° East 156 180 5,500  Descending Boston Center
09:18AM 42.9842 -76.1033 99° East 155 178 5,600  Climbing Boston Center
09:18AM 42.9803 -76.0686 99° East 157 181 5,500  Descending Boston Center
09:19AM 42.9786 -76.0489 97° East 156 180 5,600  Climbing Boston Center
09:19AM 42.9750 -76.0108 97° East 157 181 5,500  Descending Boston Center
09:20AM 42.9731 -75.9919 98° East 155 178 5,600  Climbing Boston Center
09:20AM 42.9692 -75.9531 98° East 157 181 5,500  Descending Boston Center
09:21AM 42.9678 -75.9350 96° East 152 175 5,600  Climbing Boston Center
09:21AM 42.9642 -75.8956 97° East 157 181 5,500  Descending Boston Center
09:22AM 42.9622 -75.8664 95° East 154 177 5,600  Climbing Boston Center
09:22AM 42.9592 -75.8392 99° East 157 181 5,500  Descending Boston Center
09:23AM 42.9567 -75.8094 97° East 152 175 5,600  Climbing Boston Center
09:23AM 42.9542 -75.7828 97° East 156 180 5,500  Descending Boston Center
09:24AM 42.9514 -75.7522 97° East 152 175 5,600  Climbing Boston Center
09:25AM 42.9489 -75.7264 98° East 155 178 5,500  Descending Boston Center
09:25AM 42.9458 -75.6953 98° East 152 175 5,600  Climbing Boston Center
09:26AM 42.9433 -75.6672 97° East 155 178 5,500  Descending Boston Center
09:26AM 42.9403 -75.6383 98° East 155 178 5,600  Climbing Boston Center
09:27AM 42.9361 -75.6089 101° East 155 178 5,500  Descending Boston Center
09:27AM 42.9347 -75.5817 94° East 155 178 5,600  Climbing Boston Center
09:28AM 42.9317 -75.5417 96° East 155 178 5,500  Descending Boston Center
09:28AM 42.9292 -75.5247 101° East 153 176 5,600  Climbing Boston Center
09:29AM 42.9267 -75.4822 95° East 155 178 5,500  Descending Boston Center
09:29AM 42.9250 -75.4594 96° East 155 178 5,600  Climbing Boston Center
09:30AM 42.9208 -75.4236 99° East 155 178 5,500  Descending Boston Center
09:30AM 42.9172 -75.4019 103° East 155 178 5,600 80 Climbing Boston Center
09:31AM 42.9131 -75.3483 96° East 155 178 5,600 -60 Level Boston Center
09:32AM 42.9081 -75.3089 100° East 154 177 5,500  Descending Boston Center
09:32AM 42.9075 -75.2914 92° East 154 177 5,600  Climbing Boston Center
09:33AM 42.9033 -75.2519 98° East 155 178 5,500  Descending Boston Center
09:33AM 42.9006 -75.2286 99° East 153 176 5,600  Climbing Boston Center
09:34AM 42.8986 -75.1922 94° East 155 178 5,500  Descending Boston Center
09:34AM 42.8994 -75.1700 87° East 154 177 5,600  Climbing Boston Center
09:35AM 42.8944 -75.1339 101° East 155 178 5,500  Descending Boston Center
09:35AM 42.8911 -75.1153 104° East 154 177 5,600  Climbing Boston Center
09:36AM 42.8850 -75.0781 103° East 154 177 5,500  Descending Boston Center
09:36AM 42.8800 -75.0511 104° East 158 182 5,600 77 Climbing Boston Center
09:37AM 42.8747 -74.9917 97° East 157 181 5,600  Level Boston Center
09:38AM 42.8750 -74.9367 90° East 151 174 5,600  Level Boston Center
09:39AM 42.8694 -74.8769 97° East 152 175 5,600  Level Boston Center
09:40AM 42.8636 -74.8203 98° East 155 178 5,600  Level Boston Center
09:41AM 42.8561 -74.7717 102° East 152 175 5,600 -74 Level Boston Center
09:41AM 42.8531 -74.7497 101° East 152 175 5,500 -73 Descending Boston Center
09:42AM 42.8469 -74.6919 98° East 152 175 5,500  Level Boston Center
09:43AM 42.8408 -74.6342 98° East 157 181 5,500 52 Level Boston Center
09:44AM 42.8367 -74.5769 96° East 156 180 5,600 73 Climbing Boston Center
09:45AM 42.8317 -74.5472 103° East 196 226 5,600  Level Boston Center
09:45AM 42.8272 -74.5122 100° East 156 180 5,600  Level Boston Center
09:46AM 42.8236 -74.4894 102° East 158 182 5,600  Level Boston Center
09:46AM 42.8186 -74.4567 102° East 155 178 5,600  Level Boston Center
09:47AM 42.8167 -74.4358 97° East 158 182 5,600  Level Boston Center
09:47AM 42.8122 -74.3989 99° East 150 173 5,600  Level Boston Center
09:48AM 42.8103 -74.3761 97° East 152 175 5,600  Level Boston Center
09:48AM 42.8081 -74.3419 95° East 150 173 5,600  Level Boston Center
09:49AM 42.8047 -74.3156 100° East 151 174 5,600  Level Boston Center
09:49AM 42.8011 -74.2869 100° East 149 171 5,600  Level Boston Center
09:50AM 42.7986 -74.2606 97° East 150 173 5,600  Level Boston Center
09:50AM 42.7953 -74.2264 98° East 149 171 5,600  Level Boston Center
09:51AM 42.7933 -74.2044 97° East 150 173 5,600  Level Boston Center
09:51AM 42.7883 -74.1717 102° East 146 168 5,600  Level Boston Center
09:52AM 42.7869 -74.1461 94° East 149 171 5,600  Level Boston Center
09:52AM 42.7814 -74.1167 104° East 150 173 5,600 -98 Level Boston Center
09:53AM 42.7792 -74.0900 96° East 149 171 5,500  Descending Boston Center
09:54AM 42.7728 -74.0583 105° East 150 173 5,600 98 Climbing Boston Center
09:54AM 42.7692 -74.0356 102° East 149 171 5,600 200 Level Boston Center
09:55AM 42.7567 -74.0061 120° Southeast 156 180 5,800 94 Climbing Boston Center
09:55AM 42.7464 -73.9800 118° Southeast 157 181 5,700 -194 Descending Boston Center
09:56AM 42.7306 -73.9506 126° Southeast 163 188 5,600  Descending Boston Center
09:56AM 42.7225 -73.9294 117° Southeast 158 182 5,700 91 Climbing Boston Center
09:57AM 42.7039 -73.8978 129° Southeast 162 186 5,700  Level Boston Center
09:57AM 42.6950 -73.8775 121° Southeast 158 182 5,700 -72 Level Boston Center
09:58AM 42.6706 -73.8294 125° Southeast 158 182 5,600 -64 Descending Boston Center
09:59AM 42.6567 -73.8033 126° Southeast 154 177 5,600 100 Level Boston Center
09:59AM 42.6486 -73.7806 116° Southeast 156 180 5,700  Climbing Boston Center
10:00AM 42.6303 -73.7478 127° Southeast 151 174 5,600 -94 Descending Boston Center
10:00AM 42.6236 -73.7283 115° Southeast 156 180 5,600  Level Boston Center
10:01AM 42.6097 -73.6972 121° Southeast 153 176 5,600  Level Boston Center
10:01AM 42.6028 -73.6789 117° Southeast 155 178 5,600  Level Boston Center
10:02AM 42.5883 -73.6494 124° Southeast 151 174 5,600 -100 Level Boston Center
10:02AM 42.5806 -73.6306 119° Southeast 154 177 5,500  Descending Boston Center
10:03AM 42.5650 -73.6008 125° Southeast 151 174 5,600 97 Climbing Boston Center
10:03AM 42.5569 -73.5792 117° Southeast 152 175 5,600  Level Boston Center
10:04AM 42.5436 -73.5531 125° Southeast 150 173 5,600  Level Boston Center
10:04AM 42.5344 -73.5319 121° Southeast 152 175 5,600  Level Boston Center
10:05AM 42.5186 -73.5014 125° Southeast 152 175 5,600  Level Boston Center
10:05AM 42.5083 -73.4806 124° Southeast 152 175 5,600 -340 Level Boston Center
10:06AM 42.4978 -73.4625 128° Southeast 153 176 5,300 -750 Descending Boston Center
10:07AM 42.4783 -73.4156 119° Southeast 134 154 4,500 -774 Descending Boston Center
10:08AM 42.4611 -73.3808 124° Southeast 105 121 3,700 -763 Descending Boston Center
10:09AM 42.4494 -73.3508 118° Southeast 99 114 3,000 -724 Descending Boston Center
10:10AM 42.4350 -73.3231 125° Southeast 94 108 2,300 -321 Descending Boston Center
10:11AM 42.4197 -73.2892 121° Southeast 84 97 2,300  Level Boston Center
10:12AM 42.4044 -73.2667 133° Southeast 103 119 2,300  Level Boston Center
10:14AM 42.4276 -73.2908 322° Northwest  Level Estimated
10:21AM 42.4276 -73.2908 120° Southeast  Level Estimated
10:22AM 42.4276 -73.2908 North  Level Estimated